« Back
NWS Peachtree City, Ga » Text Product » CSG Terminal Aerodrome Forecast


Printer-friendly Version
Current Version              Previous Versions:   1  2  3  4  5  6  7  8  9  

Terminal Aerodrome Forecast

197
FTUS42 KFFC 250551
TAFCSG
TAF
KCSG 250551Z 2506/2606 12004KT P6SM BKN120
     FM251000 15004KT P6SM -RA BKN060
     FM251300 17006KT 6SM -SHRA OVC012
     FM251800 21012G18KT P6SM OVC035 PROB30 2520/2524 2SM TSRA BR
      BKN012CB
     FM260300 22009G14KT P6SM SCT120=

USA.gov is the U.S. government's official web portal to all federal, state and local government web resources and services.